sensor_id;sensor_type;location;lat;lon;timestamp;P1;durP1;ratioP1;P2;durP2;ratioP2
39518;SDS011;25200;53.394;10.414;2023-12-20T00:00:59;18.88;;;2.47;;
39518;SDS011;25200;53.394;10.414;2023-12-20T00:03:25;8.52;;;1.52;;
39518;SDS011;25200;53.394;10.414;2023-12-20T00:05:51;8.27;;;2.10;;
39518;SDS011;25200;53.394;10.414;2023-12-20T00:08:16;11.82;;;2.08;;
39518;SDS011;25200;53.394;10.414;2023-12-20T00:10:43;11.52;;;1.80;;
39518;SDS011;25200;53.394;10.414;2023-12-20T00:13:09;13.73;;;2.05;;
39518;SDS011;25200;53.394;10.414;2023-12-20T00:15:35;12.93;;;2.10;;
39518;SDS011;25200;53.394;10.414;2023-12-20T00:18:00;9.07;;;2.10;;
39518;SDS011;25200;53.394;10.414;2023-12-20T00:20:26;10.75;;;2.17;;
39518;SDS011;25200;53.394;10.414;2023-12-20T00:22:54;6.10;;;1.92;;
39518;SDS011;25200;53.394;10.414;2023-12-20T00:25:23;8.05;;;1.92;;
39518;SDS011;25200;53.394;10.414;2023-12-20T00:27:49;12.90;;;2.40;;
39518;SDS011;25200;53.394;10.414;2023-12-20T00:30:15;9.85;;;1.92;;
39518;SDS011;25200;53.394;10.414;2023-12-20T00:32:41;10.88;;;1.85;;
39518;SDS011;25200;53.394;10.414;2023-12-20T00:35:11;14.32;;;2.20;;
39518;SDS011;25200;53.394;10.414;2023-12-20T00:37:38;12.27;;;2.20;;
39518;SDS011;25200;53.394;10.414;2023-12-20T00:40:03;7.80;;;2.30;;
39518;SDS011;25200;53.394;10.414;2023-12-20T00:42:30;8.65;;;2.35;;
39518;SDS011;25200;53.394;10.414;2023-12-20T00:44:55;10.43;;;1.83;;
39518;SDS011;25200;53.394;10.414;2023-12-20T00:47:21;13.63;;;2.40;;
39518;SDS011;25200;53.394;10.414;2023-12-20T00:49:47;10.48;;;1.92;;
39518;SDS011;25200;53.394;10.414;2023-12-20T00:52:15;8.73;;;2.17;;
39518;SDS011;25200;53.394;10.414;2023-12-20T00:54:42;13.55;;;2.10;;
39518;SDS011;25200;53.394;10.414;2023-12-20T00:57:09;7.60;;;1.70;;
39518;SDS011;25200;53.394;10.414;2023-12-20T00:59:35;11.52;;;1.60;;
39518;SDS011;25200;53.394;10.414;2023-12-20T01:02:01;12.60;;;1.90;;
39518;SDS011;25200;53.394;10.414;2023-12-20T01:04:27;13.32;;;2.13;;
39518;SDS011;25200;53.394;10.414;2023-12-20T01:06:53;11.00;;;2.08;;
39518;SDS011;25200;53.394;10.414;2023-12-20T01:09:19;8.60;;;2.03;;
39518;SDS011;25200;53.394;10.414;2023-12-20T01:11:48;8.68;;;1.67;;
39518;SDS011;25200;53.394;10.414;2023-12-20T01:14:15;9.27;;;2.03;;
39518;SDS011;25200;53.394;10.414;2023-12-20T01:16:45;11.48;;;1.50;;
39518;SDS011;25200;53.394;10.414;2023-12-20T01:19:12;12.85;;;1.60;;
39518;SDS011;25200;53.394;10.414;2023-12-20T01:21:41;9.65;;;1.85;;
39518;SDS011;25200;53.394;10.414;2023-12-20T01:24:08;9.93;;;1.60;;
39518;SDS011;25200;53.394;10.414;2023-12-20T01:26:34;11.18;;;1.58;;
39518;SDS011;25200;53.394;10.414;2023-12-20T01:28:59;11.00;;;1.80;;
39518;SDS011;25200;53.394;10.414;2023-12-20T01:31:26;12.57;;;1.92;;
39518;SDS011;25200;53.394;10.414;2023-12-20T01:33:52;13.63;;;1.60;;
39518;SDS011;25200;53.394;10.414;2023-12-20T01:36:18;11.40;;;1.63;;
39518;SDS011;25200;53.394;10.414;2023-12-20T01:38:44;11.95;;;2.08;;
39518;SDS011;25200;53.394;10.414;2023-12-20T01:41:10;11.05;;;1.77;;
39518;SDS011;25200;53.394;10.414;2023-12-20T01:43:36;7.53;;;1.75;;
39518;SDS011;25200;53.394;10.414;2023-12-20T01:46:01;9.48;;;1.67;;
39518;SDS011;25200;53.394;10.414;2023-12-20T01:48:28;10.95;;;1.60;;
39518;SDS011;25200;53.394;10.414;2023-12-20T01:50:57;12.07;;;1.60;;
39518;SDS011;25200;53.394;10.414;2023-12-20T01:53:24;9.15;;;2.13;;
39518;SDS011;25200;53.394;10.414;2023-12-20T01:55:52;10.82;;;1.73;;
39518;SDS011;25200;53.394;10.414;2023-12-20T01:58:20;16.75;;;2.53;;
39518;SDS011;25200;53.394;10.414;2023-12-20T02:00:47;16.92;;;2.42;;
39518;SDS011;25200;53.394;10.414;2023-12-20T02:03:14;6.70;;;1.42;;
39518;SDS011;25200;53.394;10.414;2023-12-20T02:05:39;12.48;;;1.60;;
39518;SDS011;25200;53.394;10.414;2023-12-20T02:08:06;8.68;;;1.63;;
39518;SDS011;25200;53.394;10.414;2023-12-20T02:10:31;20.65;;;1.90;;
39518;SDS011;25200;53.394;10.414;2023-12-20T02:12:57;8.88;;;1.60;;
39518;SDS011;25200;53.394;10.414;2023-12-20T02:15:23;11.02;;;1.70;;
39518;SDS011;25200;53.394;10.414;2023-12-20T02:17:49;11.18;;;1.67;;
39518;SDS011;25200;53.394;10.414;2023-12-20T02:20:15;9.43;;;1.55;;
39518;SDS011;25200;53.394;10.414;2023-12-20T02:22:41;13.70;;;1.70;;
39518;SDS011;25200;53.394;10.414;2023-12-20T02:25:07;13.98;;;2.28;;
39518;SDS011;25200;53.394;10.414;2023-12-20T02:27:33;15.90;;;2.05;;
39518;SDS011;25200;53.394;10.414;2023-12-20T02:30:00;6.57;;;1.42;;
39518;SDS011;25200;53.394;10.414;2023-12-20T02:32:26;10.30;;;2.00;;
39518;SDS011;25200;53.394;10.414;2023-12-20T02:34:51;10.85;;;1.88;;
39518;SDS011;25200;53.394;10.414;2023-12-20T02:37:17;10.63;;;1.85;;
39518;SDS011;25200;53.394;10.414;2023-12-20T02:39:42;12.57;;;1.65;;
39518;SDS011;25200;53.394;10.414;2023-12-20T02:42:08;10.23;;;1.83;;
39518;SDS011;25200;53.394;10.414;2023-12-20T02:44:34;8.98;;;1.45;;
39518;SDS011;25200;53.394;10.414;2023-12-20T02:46:59;12.18;;;1.73;;
39518;SDS011;25200;53.394;10.414;2023-12-20T02:49:25;10.55;;;1.80;;
39518;SDS011;25200;53.394;10.414;2023-12-20T02:51:51;11.48;;;1.98;;
39518;SDS011;25200;53.394;10.414;2023-12-20T02:54:16;11.13;;;1.90;;
39518;SDS011;25200;53.394;10.414;2023-12-20T02:56:42;14.27;;;2.20;;
39518;SDS011;25200;53.394;10.414;2023-12-20T02:59:08;13.20;;;1.90;;
39518;SDS011;25200;53.394;10.414;2023-12-20T03:01:34;12.40;;;2.08;;
39518;SDS011;25200;53.394;10.414;2023-12-20T03:04:00;10.52;;;1.92;;
39518;SDS011;25200;53.394;10.414;2023-12-20T03:06:26;11.95;;;1.92;;
39518;SDS011;25200;53.394;10.414;2023-12-20T03:08:51;11.40;;;2.53;;
39518;SDS011;25200;53.394;10.414;2023-12-20T03:11:17;12.40;;;2.92;;
39518;SDS011;25200;53.394;10.414;2023-12-20T03:13:43;11.23;;;2.67;;
39518;SDS011;25200;53.394;10.414;2023-12-20T03:16:09;17.90;;;3.17;;
39518;SDS011;25200;53.394;10.414;2023-12-20T03:18:35;12.70;;;3.03;;
39518;SDS011;25200;53.394;10.414;2023-12-20T03:21:01;15.38;;;3.58;;
39518;SDS011;25200;53.394;10.414;2023-12-20T03:23:27;10.60;;;3.08;;
39518;SDS011;25200;53.394;10.414;2023-12-20T03:25:52;16.15;;;4.63;;
39518;SDS011;25200;53.394;10.414;2023-12-20T03:28:18;12.63;;;3.70;;
39518;SDS011;25200;53.394;10.414;2023-12-20T03:30:44;13.35;;;3.80;;
39518;SDS011;25200;53.394;10.414;2023-12-20T03:33:10;14.60;;;3.55;;
39518;SDS011;25200;53.394;10.414;2023-12-20T03:35:38;10.63;;;3.75;;
39518;SDS011;25200;53.394;10.414;2023-12-20T03:38:04;13.50;;;3.90;;
39518;SDS011;25200;53.394;10.414;2023-12-20T03:40:29;10.82;;;4.28;;
39518;SDS011;25200;53.394;10.414;2023-12-20T03:42:55;17.08;;;3.95;;
39518;SDS011;25200;53.394;10.414;2023-12-20T03:45:21;14.90;;;4.32;;
39518;SDS011;25200;53.394;10.414;2023-12-20T03:47:46;11.90;;;3.90;;
39518;SDS011;25200;53.394;10.414;2023-12-20T03:50:13;16.98;;;4.18;;
39518;SDS011;25200;53.394;10.414;2023-12-20T03:52:39;15.27;;;3.85;;
39518;SDS011;25200;53.394;10.414;2023-12-20T03:55:05;11.65;;;3.67;;
39518;SDS011;25200;53.394;10.414;2023-12-20T03:57:31;14.35;;;4.00;;
39518;SDS011;25200;53.394;10.414;2023-12-20T03:59:56;14.55;;;4.20;;
39518;SDS011;25200;53.394;10.414;2023-12-20T04:02:22;13.23;;;3.20;;
39518;SDS011;25200;53.394;10.414;2023-12-20T04:04:48;14.38;;;3.22;;
39518;SDS011;25200;53.394;10.414;2023-12-20T04:07:13;15.15;;;3.55;;
39518;SDS011;25200;53.394;10.414;2023-12-20T04:09:40;11.70;;;3.05;;
39518;SDS011;25200;53.394;10.414;2023-12-20T04:12:06;15.52;;;3.20;;
39518;SDS011;25200;53.394;10.414;2023-12-20T04:14:32;10.88;;;3.25;;
39518;SDS011;25200;53.394;10.414;2023-12-20T04:16:57;9.63;;;3.00;;
39518;SDS011;25200;53.394;10.414;2023-12-20T04:19:23;12.27;;;3.38;;
39518;SDS011;25200;53.394;10.414;2023-12-20T04:21:49;13.32;;;2.70;;
39518;SDS011;25200;53.394;10.414;2023-12-20T04:24:14;17.48;;;3.00;;
39518;SDS011;25200;53.394;10.414;2023-12-20T04:26:40;12.93;;;2.75;;
39518;SDS011;25200;53.394;10.414;2023-12-20T04:29:06;18.52;;;3.45;;
39518;SDS011;25200;53.394;10.414;2023-12-20T04:31:31;9.60;;;2.75;;
39518;SDS011;25200;53.394;10.414;2023-12-20T04:33:57;10.35;;;3.05;;
39518;SDS011;25200;53.394;10.414;2023-12-20T04:36:22;12.43;;;3.03;;
39518;SDS011;25200;53.394;10.414;2023-12-20T04:38:50;13.82;;;3.22;;
39518;SDS011;25200;53.394;10.414;2023-12-20T04:41:15;11.52;;;3.38;;
39518;SDS011;25200;53.394;10.414;2023-12-20T04:43:43;13.48;;;3.47;;
39518;SDS011;25200;53.394;10.414;2023-12-20T04:46:09;13.82;;;3.30;;
39518;SDS011;25200;53.394;10.414;2023-12-20T04:48:35;11.35;;;3.40;;
39518;SDS011;25200;53.394;10.414;2023-12-20T04:51:00;14.73;;;3.95;;
39518;SDS011;25200;53.394;10.414;2023-12-20T04:53:26;14.45;;;3.45;;
39518;SDS011;25200;53.394;10.414;2023-12-20T04:55:52;15.13;;;3.67;;
39518;SDS011;25200;53.394;10.414;2023-12-20T04:58:18;13.90;;;3.47;;
39518;SDS011;25200;53.394;10.414;2023-12-20T05:00:44;10.75;;;3.78;;
39518;SDS011;25200;53.394;10.414;2023-12-20T05:03:10;14.02;;;4.05;;
39518;SDS011;25200;53.394;10.414;2023-12-20T05:05:35;12.93;;;4.25;;
39518;SDS011;25200;53.394;10.414;2023-12-20T05:08:01;15.93;;;4.65;;
39518;SDS011;25200;53.394;10.414;2023-12-20T05:10:27;17.80;;;4.63;;
39518;SDS011;25200;53.394;10.414;2023-12-20T05:12:53;16.10;;;4.18;;
39518;SDS011;25200;53.394;10.414;2023-12-20T05:15:18;16.95;;;3.97;;
39518;SDS011;25200;53.394;10.414;2023-12-20T05:17:44;13.32;;;4.00;;
39518;SDS011;25200;53.394;10.414;2023-12-20T05:20:10;19.63;;;4.60;;
39518;SDS011;25200;53.394;10.414;2023-12-20T05:22:35;19.98;;;3.92;;
39518;SDS011;25200;53.394;10.414;2023-12-20T05:25:01;17.90;;;4.60;;
39518;SDS011;25200;53.394;10.414;2023-12-20T05:27:27;17.08;;;4.32;;
39518;SDS011;25200;53.394;10.414;2023-12-20T05:29:52;13.48;;;3.95;;
39518;SDS011;25200;53.394;10.414;2023-12-20T05:32:22;9.60;;;4.03;;
39518;SDS011;25200;53.394;10.414;2023-12-20T05:34:48;15.48;;;4.93;;
39518;SDS011;25200;53.394;10.414;2023-12-20T05:37:14;12.73;;;3.75;;
39518;SDS011;25200;53.394;10.414;2023-12-20T05:39:39;16.08;;;4.22;;
39518;SDS011;25200;53.394;10.414;2023-12-20T05:42:05;15.60;;;4.03;;
39518;SDS011;25200;53.394;10.414;2023-12-20T05:44:31;14.07;;;3.67;;
39518;SDS011;25200;53.394;10.414;2023-12-20T05:46:56;20.35;;;4.47;;
39518;SDS011;25200;53.394;10.414;2023-12-20T05:49:22;12.23;;;3.60;;
39518;SDS011;25200;53.394;10.414;2023-12-20T05:51:48;18.85;;;4.20;;
39518;SDS011;25200;53.394;10.414;2023-12-20T05:54:15;13.35;;;3.95;;
39518;SDS011;25200;53.394;10.414;2023-12-20T05:56:41;15.82;;;5.05;;
39518;SDS011;25200;53.394;10.414;2023-12-20T05:59:07;11.40;;;3.33;;
39518;SDS011;25200;53.394;10.414;2023-12-20T06:01:32;15.00;;;3.72;;
39518;SDS011;25200;53.394;10.414;2023-12-20T06:03:58;15.73;;;3.90;;
39518;SDS011;25200;53.394;10.414;2023-12-20T06:06:23;16.00;;;4.07;;
39518;SDS011;25200;53.394;10.414;2023-12-20T06:08:49;18.40;;;3.50;;
39518;SDS011;25200;53.394;10.414;2023-12-20T06:11:15;14.00;;;3.47;;
39518;SDS011;25200;53.394;10.414;2023-12-20T06:13:41;14.10;;;3.28;;
39518;SDS011;25200;53.394;10.414;2023-12-20T06:16:06;15.75;;;3.53;;
39518;SDS011;25200;53.394;10.414;2023-12-20T06:18:32;9.15;;;2.85;;
39518;SDS011;25200;53.394;10.414;2023-12-20T06:20:58;7.40;;;3.22;;
39518;SDS011;25200;53.394;10.414;2023-12-20T06:23:23;15.32;;;3.50;;
39518;SDS011;25200;53.394;10.414;2023-12-20T06:25:49;18.33;;;3.28;;
39518;SDS011;25200;53.394;10.414;2023-12-20T06:28:15;13.38;;;3.55;;
39518;SDS011;25200;53.394;10.414;2023-12-20T06:30:40;10.45;;;3.28;;
39518;SDS011;25200;53.394;10.414;2023-12-20T06:33:06;14.07;;;3.47;;
39518;SDS011;25200;53.394;10.414;2023-12-20T06:35:32;17.55;;;4.00;;
39518;SDS011;25200;53.394;10.414;2023-12-20T06:37:57;15.60;;;3.90;;
39518;SDS011;25200;53.394;10.414;2023-12-20T06:40:23;16.00;;;3.58;;
39518;SDS011;25200;53.394;10.414;2023-12-20T06:42:49;14.68;;;3.38;;
39518;SDS011;25200;53.394;10.414;2023-12-20T06:45:14;13.95;;;3.80;;
39518;SDS011;25200;53.394;10.414;2023-12-20T06:47:40;14.05;;;3.97;;
39518;SDS011;25200;53.394;10.414;2023-12-20T06:50:06;17.80;;;5.30;;
39518;SDS011;25200;53.394;10.414;2023-12-20T06:52:33;15.20;;;4.45;;
39518;SDS011;25200;53.394;10.414;2023-12-20T06:55:00;18.48;;;5.00;;
39518;SDS011;25200;53.394;10.414;2023-12-20T06:57:26;17.00;;;4.72;;
39518;SDS011;25200;53.394;10.414;2023-12-20T06:59:52;12.15;;;3.85;;
39518;SDS011;25200;53.394;10.414;2023-12-20T07:02:18;13.98;;;3.90;;
39518;SDS011;25200;53.394;10.414;2023-12-20T07:04:44;13.55;;;4.78;;
39518;SDS011;25200;53.394;10.414;2023-12-20T07:07:09;13.43;;;4.45;;
39518;SDS011;25200;53.394;10.414;2023-12-20T07:09:35;13.48;;;4.22;;
39518;SDS011;25200;53.394;10.414;2023-12-20T07:12:01;17.98;;;4.88;;
39518;SDS011;25200;53.394;10.414;2023-12-20T07:14:27;14.05;;;3.92;;
39518;SDS011;25200;53.394;10.414;2023-12-20T07:16:54;14.25;;;4.15;;
39518;SDS011;25200;53.394;10.414;2023-12-20T07:19:19;13.30;;;3.78;;
39518;SDS011;25200;53.394;10.414;2023-12-20T07:21:45;21.58;;;4.47;;
39518;SDS011;25200;53.394;10.414;2023-12-20T07:24:11;12.05;;;3.90;;
39518;SDS011;25200;53.394;10.414;2023-12-20T07:26:36;15.05;;;4.15;;
39518;SDS011;25200;53.394;10.414;2023-12-20T07:29:03;16.70;;;4.32;;
39518;SDS011;25200;53.394;10.414;2023-12-20T07:31:29;23.77;;;4.10;;
39518;SDS011;25200;53.394;10.414;2023-12-20T07:33:55;13.50;;;3.90;;
39518;SDS011;25200;53.394;10.414;2023-12-20T07:36:21;17.40;;;4.10;;
39518;SDS011;25200;53.394;10.414;2023-12-20T07:38:47;16.55;;;4.63;;
39518;SDS011;25200;53.394;10.414;2023-12-20T07:41:12;17.10;;;3.60;;
39518;SDS011;25200;53.394;10.414;2023-12-20T07:43:38;21.95;;;6.55;;
39518;SDS011;25200;53.394;10.414;2023-12-20T07:46:07;14.55;;;4.28;;
39518;SDS011;25200;53.394;10.414;2023-12-20T07:48:37;17.60;;;3.95;;
39518;SDS011;25200;53.394;10.414;2023-12-20T07:51:06;13.75;;;3.80;;
39518;SDS011;25200;53.394;10.414;2023-12-20T07:53:33;22.30;;;4.97;;
39518;SDS011;25200;53.394;10.414;2023-12-20T07:56:00;22.15;;;4.38;;
39518;SDS011;25200;53.394;10.414;2023-12-20T07:58:25;21.30;;;4.15;;
39518;SDS011;25200;53.394;10.414;2023-12-20T08:00:51;14.25;;;3.70;;
39518;SDS011;25200;53.394;10.414;2023-12-20T08:03:16;12.20;;;3.50;;
39518;SDS011;25200;53.394;10.414;2023-12-20T08:05:42;16.02;;;3.67;;
39518;SDS011;25200;53.394;10.414;2023-12-20T08:08:08;19.48;;;3.88;;
39518;SDS011;25200;53.394;10.414;2023-12-20T08:10:33;19.42;;;4.05;;
39518;SDS011;25200;53.394;10.414;2023-12-20T08:12:59;14.43;;;3.53;;
39518;SDS011;25200;53.394;10.414;2023-12-20T08:15:25;11.70;;;3.40;;
39518;SDS011;25200;53.394;10.414;2023-12-20T08:17:50;14.77;;;3.47;;
39518;SDS011;25200;53.394;10.414;2023-12-20T08:20:16;16.95;;;3.65;;
39518;SDS011;25200;53.394;10.414;2023-12-20T08:22:42;18.63;;;3.63;;
39518;SDS011;25200;53.394;10.414;2023-12-20T08:25:08;14.10;;;3.22;;
39518;SDS011;25200;53.394;10.414;2023-12-20T08:27:34;16.95;;;3.83;;
39518;SDS011;25200;53.394;10.414;2023-12-20T08:30:05;18.25;;;3.28;;
39518;SDS011;25200;53.394;10.414;2023-12-20T08:32:33;15.20;;;3.47;;
39518;SDS011;25200;53.394;10.414;2023-12-20T08:34:59;21.45;;;3.92;;
39518;SDS011;25200;53.394;10.414;2023-12-20T08:37:25;21.40;;;4.38;;
39518;SDS011;25200;53.394;10.414;2023-12-20T08:39:50;22.35;;;4.00;;
39518;SDS011;25200;53.394;10.414;2023-12-20T08:42:16;17.08;;;3.78;;
39518;SDS011;25200;53.394;10.414;2023-12-20T08:44:42;15.98;;;3.13;;
39518;SDS011;25200;53.394;10.414;2023-12-20T08:47:07;17.38;;;3.20;;
39518;SDS011;25200;53.394;10.414;2023-12-20T08:49:33;13.20;;;3.20;;
39518;SDS011;25200;53.394;10.414;2023-12-20T08:51:58;15.02;;;2.97;;
39518;SDS011;25200;53.394;10.414;2023-12-20T08:54:24;12.77;;;3.38;;
39518;SDS011;25200;53.394;10.414;2023-12-20T08:56:50;18.20;;;3.20;;
39518;SDS011;25200;53.394;10.414;2023-12-20T08:59:15;11.85;;;2.70;;
39518;SDS011;25200;53.394;10.414;2023-12-20T09:01:41;12.23;;;2.88;;
39518;SDS011;25200;53.394;10.414;2023-12-20T09:04:07;21.08;;;3.63;;
39518;SDS011;25200;53.394;10.414;2023-12-20T09:06:32;17.88;;;2.90;;
39518;SDS011;25200;53.394;10.414;2023-12-20T09:08:58;15.82;;;3.17;;
39518;SDS011;25200;53.394;10.414;2023-12-20T09:11:24;13.65;;;2.92;;
39518;SDS011;25200;53.394;10.414;2023-12-20T09:13:49;17.65;;;3.35;;
39518;SDS011;25200;53.394;10.414;2023-12-20T09:16:15;14.98;;;3.42;;
39518;SDS011;25200;53.394;10.414;2023-12-20T09:18:41;15.63;;;3.15;;
39518;SDS011;25200;53.394;10.414;2023-12-20T09:21:07;16.13;;;3.58;;
39518;SDS011;25200;53.394;10.414;2023-12-20T09:23:33;19.50;;;4.10;;
39518;SDS011;25200;53.394;10.414;2023-12-20T09:25:58;13.27;;;3.80;;
39518;SDS011;25200;53.394;10.414;2023-12-20T09:28:24;14.10;;;3.30;;
39518;SDS011;25200;53.394;10.414;2023-12-20T09:30:50;9.02;;;2.90;;
39518;SDS011;25200;53.394;10.414;2023-12-20T09:33:15;7.30;;;2.25;;
39518;SDS011;25200;53.394;10.414;2023-12-20T09:35:41;9.18;;;2.13;;
39518;SDS011;25200;53.394;10.414;2023-12-20T09:38:07;12.15;;;2.28;;
39518;SDS011;25200;53.394;10.414;2023-12-20T09:40:33;11.70;;;2.33;;
39518;SDS011;25200;53.394;10.414;2023-12-20T09:43:04;6.03;;;2.00;;
39518;SDS011;25200;53.394;10.414;2023-12-20T09:45:35;11.02;;;2.30;;
39518;SDS011;25200;53.394;10.414;2023-12-20T09:48:02;8.45;;;2.28;;
39518;SDS011;25200;53.394;10.414;2023-12-20T09:50:30;10.55;;;2.50;;
39518;SDS011;25200;53.394;10.414;2023-12-20T09:52:57;7.75;;;2.70;;
39518;SDS011;25200;53.394;10.414;2023-12-20T09:55:24;9.63;;;2.28;;
39518;SDS011;25200;53.394;10.414;2023-12-20T09:57:51;11.23;;;2.33;;
39518;SDS011;25200;53.394;10.414;2023-12-20T10:00:17;7.97;;;2.13;;
39518;SDS011;25200;53.394;10.414;2023-12-20T10:02:50;7.35;;;2.15;;
39518;SDS011;25200;53.394;10.414;2023-12-20T10:05:23;6.05;;;1.60;;
39518;SDS011;25200;53.394;10.414;2023-12-20T10:07:52;7.25;;;2.03;;
39518;SDS011;25200;53.394;10.414;2023-12-20T10:10:17;10.77;;;1.90;;
39518;SDS011;25200;53.394;10.414;2023-12-20T10:15:35;9.25;;;1.63;;
39518;SDS011;25200;53.394;10.414;2023-12-20T10:18:02;5.93;;;1.10;;
39518;SDS011;25200;53.394;10.414;2023-12-20T10:20:28;6.68;;;1.60;;
39518;SDS011;25200;53.394;10.414;2023-12-20T10:22:55;7.13;;;1.45;;
39518;SDS011;25200;53.394;10.414;2023-12-20T10:25:25;5.35;;;1.13;;
39518;SDS011;25200;53.394;10.414;2023-12-20T10:28:08;4.03;;;1.15;;
39518;SDS011;25200;53.394;10.414;2023-12-20T10:30:47;4.55;;;1.20;;
39518;SDS011;25200;53.394;10.414;2023-12-20T10:33:13;7.05;;;1.33;;
39518;SDS011;25200;53.394;10.414;2023-12-20T10:35:47;3.60;;;0.93;;
39518;SDS011;25200;53.394;10.414;2023-12-20T10:38:13;5.07;;;1.00;;
39518;SDS011;25200;53.394;10.414;2023-12-20T10:40:40;3.20;;;1.15;;
39518;SDS011;25200;53.394;10.414;2023-12-20T10:43:05;7.70;;;1.30;;
39518;SDS011;25200;53.394;10.414;2023-12-20T10:45:33;3.65;;;0.90;;
39518;SDS011;25200;53.394;10.414;2023-12-20T10:47:59;4.38;;;0.85;;
39518;SDS011;25200;53.394;10.414;2023-12-20T10:50:27;3.40;;;0.57;;
39518;SDS011;25200;53.394;10.414;2023-12-20T10:52:54;3.45;;;0.85;;
39518;SDS011;25200;53.394;10.414;2023-12-20T10:55:23;3.80;;;0.88;;
39518;SDS011;25200;53.394;10.414;2023-12-20T10:58:23;5.82;;;1.10;;
39518;SDS011;25200;53.394;10.414;2023-12-20T11:00:44;4.00;;;1.00;;
39518;SDS011;25200;53.394;10.414;2023-12-20T11:03:12;4.45;;;1.10;;
39518;SDS011;25200;53.394;10.414;2023-12-20T11:05:49;3.03;;;1.02;;
39518;SDS011;25200;53.394;10.414;2023-12-20T11:08:19;4.18;;;0.80;;
39518;SDS011;25200;53.394;10.414;2023-12-20T11:10:58;3.80;;;0.90;;
39518;SDS011;25200;53.394;10.414;2023-12-20T11:13:27;5.18;;;0.75;;
39518;SDS011;25200;53.394;10.414;2023-12-20T11:15:57;6.63;;;1.10;;
39518;SDS011;25200;53.394;10.414;2023-12-20T11:18:30;4.72;;;0.98;;
39518;SDS011;25200;53.394;10.414;2023-12-20T11:21:00;8.60;;;1.08;;
39518;SDS011;25200;53.394;10.414;2023-12-20T11:23:29;2.67;;;0.68;;
39518;SDS011;25200;53.394;10.414;2023-12-20T11:25:56;5.72;;;1.02;;
39518;SDS011;25200;53.394;10.414;2023-12-20T11:28:25;5.13;;;1.08;;
39518;SDS011;25200;53.394;10.414;2023-12-20T11:30:52;5.05;;;1.15;;
39518;SDS011;25200;53.394;10.414;2023-12-20T11:33:23;6.72;;;1.33;;
39518;SDS011;25200;53.394;10.414;2023-12-20T11:35:49;6.32;;;1.15;;
39518;SDS011;25200;53.394;10.414;2023-12-20T11:38:15;3.97;;;0.80;;
39518;SDS011;25200;53.394;10.414;2023-12-20T11:40:44;4.18;;;1.23;;
39518;SDS011;25200;53.394;10.414;2023-12-20T11:43:13;4.93;;;1.05;;
39518;SDS011;25200;53.394;10.414;2023-12-20T11:46:05;3.25;;;1.05;;
39518;SDS011;25200;53.394;10.414;2023-12-20T11:48:37;5.97;;;1.60;;
39518;SDS011;25200;53.394;10.414;2023-12-20T11:51:11;4.18;;;1.00;;
39518;SDS011;25200;53.394;10.414;2023-12-20T11:53:38;7.60;;;1.48;;
39518;SDS011;25200;53.394;10.414;2023-12-20T11:56:07;10.55;;;1.33;;
39518;SDS011;25200;53.394;10.414;2023-12-20T11:58:33;6.65;;;1.25;;
39518;SDS011;25200;53.394;10.414;2023-12-20T12:01:00;8.43;;;1.58;;
39518;SDS011;25200;53.394;10.414;2023-12-20T12:03:27;6.15;;;1.52;;
39518;SDS011;25200;53.394;10.414;2023-12-20T12:05:53;11.25;;;1.75;;
39518;SDS011;25200;53.394;10.414;2023-12-20T12:08:19;8.23;;;1.80;;
39518;SDS011;25200;53.394;10.414;2023-12-20T12:10:44;10.60;;;1.85;;
39518;SDS011;25200;53.394;10.414;2023-12-20T12:13:10;8.10;;;1.50;;
39518;SDS011;25200;53.394;10.414;2023-12-20T12:15:37;7.18;;;1.42;;
39518;SDS011;25200;53.394;10.414;2023-12-20T12:18:03;15.55;;;2.15;;
39518;SDS011;25200;53.394;10.414;2023-12-20T12:20:30;9.10;;;1.52;;
39518;SDS011;25200;53.394;10.414;2023-12-20T12:23:03;12.75;;;1.55;;
39518;SDS011;25200;53.394;10.414;2023-12-20T12:25:30;10.48;;;1.40;;
39518;SDS011;25200;53.394;10.414;2023-12-20T12:28:00;8.70;;;2.20;;
39518;SDS011;25200;53.394;10.414;2023-12-20T12:30:26;8.63;;;1.65;;
39518;SDS011;25200;53.394;10.414;2023-12-20T12:32:52;5.78;;;1.80;;
39518;SDS011;25200;53.394;10.414;2023-12-20T12:35:18;7.97;;;1.55;;
39518;SDS011;25200;53.394;10.414;2023-12-20T12:37:44;8.70;;;1.73;;
39518;SDS011;25200;53.394;10.414;2023-12-20T12:40:10;7.80;;;1.90;;
39518;SDS011;25200;53.394;10.414;2023-12-20T12:42:38;8.57;;;1.67;;
39518;SDS011;25200;53.394;10.414;2023-12-20T12:45:04;10.05;;;2.05;;
39518;SDS011;25200;53.394;10.414;2023-12-20T12:47:30;7.88;;;1.85;;
39518;SDS011;25200;53.394;10.414;2023-12-20T12:49:56;7.13;;;1.88;;
39518;SDS011;25200;53.394;10.414;2023-12-20T12:52:22;11.60;;;2.20;;
39518;SDS011;25200;53.394;10.414;2023-12-20T12:54:47;9.60;;;1.70;;
39518;SDS011;25200;53.394;10.414;2023-12-20T12:57:13;11.43;;;1.92;;
39518;SDS011;25200;53.394;10.414;2023-12-20T12:59:40;10.40;;;1.75;;
39518;SDS011;25200;53.394;10.414;2023-12-20T13:02:06;9.63;;;1.73;;
39518;SDS011;25200;53.394;10.414;2023-12-20T13:04:35;9.15;;;1.52;;
39518;SDS011;25200;53.394;10.414;2023-12-20T13:07:00;10.00;;;1.80;;
39518;SDS011;25200;53.394;10.414;2023-12-20T13:09:26;11.50;;;2.13;;
39518;SDS011;25200;53.394;10.414;2023-12-20T13:11:52;9.07;;;2.00;;
39518;SDS011;25200;53.394;10.414;2023-12-20T13:14:17;5.88;;;1.42;;
39518;SDS011;25200;53.394;10.414;2023-12-20T13:16:43;10.48;;;1.80;;
39518;SDS011;25200;53.394;10.414;2023-12-20T13:19:10;9.95;;;2.03;;
39518;SDS011;25200;53.394;10.414;2023-12-20T13:21:36;9.25;;;1.75;;
39518;SDS011;25200;53.394;10.414;2023-12-20T13:24:02;13.85;;;1.98;;
39518;SDS011;25200;53.394;10.414;2023-12-20T13:26:28;14.65;;;2.22;;
39518;SDS011;25200;53.394;10.414;2023-12-20T13:28:54;9.85;;;2.33;;
39518;SDS011;25200;53.394;10.414;2023-12-20T13:31:19;13.95;;;2.15;;
39518;SDS011;25200;53.394;10.414;2023-12-20T13:33:45;11.82;;;2.40;;
39518;SDS011;25200;53.394;10.414;2023-12-20T13:36:11;11.85;;;1.60;;
39518;SDS011;25200;53.394;10.414;2023-12-20T13:38:37;8.00;;;2.00;;
39518;SDS011;25200;53.394;10.414;2023-12-20T13:41:03;13.68;;;2.78;;
39518;SDS011;25200;53.394;10.414;2023-12-20T13:43:30;11.68;;;2.33;;
39518;SDS011;25200;53.394;10.414;2023-12-20T13:45:57;10.52;;;2.42;;
39518;SDS011;25200;53.394;10.414;2023-12-20T13:48:26;10.95;;;2.17;;
39518;SDS011;25200;53.394;10.414;2023-12-20T13:50:52;8.82;;;1.90;;
39518;SDS011;25200;53.394;10.414;2023-12-20T13:53:18;10.55;;;1.90;;
39518;SDS011;25200;53.394;10.414;2023-12-20T13:55:44;15.05;;;2.92;;
39518;SDS011;25200;53.394;10.414;2023-12-20T13:58:09;8.63;;;2.05;;
39518;SDS011;25200;53.394;10.414;2023-12-20T14:00:35;16.45;;;2.33;;
39518;SDS011;25200;53.394;10.414;2023-12-20T14:03:02;11.18;;;2.40;;
39518;SDS011;25200;53.394;10.414;2023-12-20T14:05:30;8.88;;;1.98;;
39518;SDS011;25200;53.394;10.414;2023-12-20T14:07:56;12.70;;;2.53;;
39518;SDS011;25200;53.394;10.414;2023-12-20T14:10:25;15.98;;;2.60;;
39518;SDS011;25200;53.394;10.414;2023-12-20T14:12:51;13.75;;;2.35;;
39518;SDS011;25200;53.394;10.414;2023-12-20T14:15:18;20.70;;;3.03;;
39518;SDS011;25200;53.394;10.414;2023-12-20T14:17:43;16.23;;;2.85;;
39518;SDS011;25200;53.394;10.414;2023-12-20T14:20:09;13.82;;;2.30;;
39518;SDS011;25200;53.394;10.414;2023-12-20T14:22:38;9.85;;;2.22;;
39518;SDS011;25200;53.394;10.414;2023-12-20T14:25:03;25.50;;;3.17;;